Time;durP1;ratioP1;P1;durP2;ratioP2;P2;SDS_P1;SDS_P2;PMS_P1;PMS_P2;Temp;Humidity;BMP_temperature;BMP_pressure;BME280_temperature;BME280_humidity;BME280_pressure;Samples;Min_cycle;Max_cycle;Signal;HPM_P1;HPM_P2
2023/07/04 00:00:09;;;;;;;6.33;5.73;;;21.70;99.90;;;;;;6238096;28;20254;-63
2023/07/04 00:03:15;;;;;;;7.00;6.30;;;21.70;99.90;;;;;;6253747;28;20714;-63
2023/07/04 00:06:19;;;;;;;5.90;5.30;;;21.70;99.90;;;;;;6254130;28;20299;-63
2023/07/04 00:09:24;;;;;;;5.70;4.90;;;21.80;99.90;;;;;;6249585;28;20362;-63
2023/07/04 00:12:32;;;;;;;8.17;5.20;;;21.70;99.90;;;;;;6254543;28;20232;-63
2023/07/04 00:15:38;;;;;;;6.00;5.37;;;21.70;99.90;;;;;;6256926;28;20316;-63
2023/07/04 00:18:42;;;;;;;5.80;5.30;;;21.60;99.90;;;;;;6258678;28;20316;-63
2023/07/04 00:21:45;;;;;;;17.33;6.30;;;21.50;99.90;;;;;;6258361;28;20289;-63
2023/07/04 00:24:49;;;;;;;7.20;5.70;;;21.50;99.90;;;;;;6257733;28;20670;-63
2023/07/04 00:27:55;;;;;;;6.00;5.20;;;21.50;99.90;;;;;;6254654;28;20228;-63
2023/07/04 00:31:05;;;;;;;5.30;4.80;;;21.50;99.90;;;;;;6254268;28;20358;-62
2023/07/04 00:34:10;;;;;;;7.20;4.87;;;21.30;99.90;;;;;;6253433;28;20255;-63
2023/07/04 00:37:17;;;;;;;4.80;4.40;;;21.20;99.90;;;;;;6253508;28;20346;-62
2023/07/04 00:40:20;;;;;;;4.60;4.20;;;21.20;99.90;;;;;;6253704;28;20510;-62
2023/07/04 00:43:27;;;;;;;5.63;4.70;;;21.30;99.90;;;;;;6253719;28;20228;-62
2023/07/04 00:46:40;;;;;;;8.43;5.20;;;21.40;99.90;;;;;;6252984;28;20679;-62
2023/07/04 00:49:46;;;;;;;7.50;4.67;;;21.60;99.90;;;;;;6254090;28;20247;-62
2023/07/04 00:52:50;;;;;;;5.87;5.13;;;21.70;99.90;;;;;;6236747;28;20228;-62
2023/07/04 00:55:53;;;;;;;6.30;5.70;;;21.80;99.90;;;;;;6253264;28;20229;-62
2023/07/04 00:58:59;;;;;;;6.60;5.27;;;21.80;99.90;;;;;;6253154;28;20243;-62
2023/07/04 01:02:03;;;;;;;5.57;5.03;;;21.70;99.90;;;;;;6253197;28;20251;-62
2023/07/04 01:05:07;;;;;;;5.23;4.73;;;21.60;99.90;;;;;;6252285;28;20675;-62
2023/07/04 01:08:14;;;;;;;7.30;5.30;;;21.50;99.90;;;;;;6252875;28;20315;-62
2023/07/04 01:11:25;;;;;;;5.70;4.87;;;21.30;99.90;;;;;;6252952;28;20315;-62
2023/07/04 01:14:34;;;;;;;5.37;4.83;;;21.30;99.90;;;;;;6248533;28;20242;-62
2023/07/04 01:17:42;;;;;;;5.40;5.00;;;21.20;99.90;;;;;;6252648;28;20259;-62
2023/07/04 01:20:47;;;;;;;5.10;4.60;;;21.20;99.90;;;;;;6252821;28;20208;-62
2023/07/04 01:24:03;;;;;;;5.40;4.90;;;21.20;99.90;;;;;;6253165;28;20227;-62
2023/07/04 01:27:14;;;;;;;5.13;4.63;;;21.10;99.90;;;;;;6252470;28;20557;-63
2023/07/04 01:30:18;;;;;;;6.40;4.90;;;21.10;99.90;;;;;;6252164;28;20247;-63
2023/07/04 01:33:21;;;;;;;6.20;5.20;;;20.90;99.90;;;;;;6251843;28;20254;-63
2023/07/04 01:36:34;;;;;;;5.23;4.83;;;20.90;99.90;;;;;;6234957;28;20576;-63
2023/07/04 01:39:37;;;;;;;5.33;4.80;;;20.80;99.90;;;;;;6252426;28;20318;-63
2023/07/04 01:42:42;;;;;;;6.20;4.87;;;20.90;99.90;;;;;;6252158;28;20550;-62
2023/07/04 01:45:45;;;;;;;7.80;5.70;;;20.80;99.90;;;;;;6252136;28;20315;-62
2023/07/04 01:48:49;;;;;;;5.57;5.10;;;20.80;99.90;;;;;;6251840;28;20264;-62
2023/07/04 01:51:55;;;;;;;6.80;5.30;;;20.80;99.90;;;;;;6234529;28;20310;-62
2023/07/04 01:55:01;;;;;;;6.00;4.90;;;20.80;99.90;;;;;;6252697;28;20309;-62
2023/07/04 01:58:06;;;;;;;5.73;5.13;;;20.70;99.90;;;;;;6253544;28;20247;-62
2023/07/04 02:01:11;;;;;;;5.80;5.20;;;20.70;99.90;;;;;;6235029;28;20312;-62
2023/07/04 02:04:25;;;;;;;5.17;4.70;;;20.80;99.90;;;;;;6251791;28;20242;-62
2023/07/04 02:07:28;;;;;;;5.73;5.20;;;20.80;99.90;;;;;;6251074;28;20657;-62
2023/07/04 02:10:34;;;;;;;4.97;4.53;;;20.80;99.90;;;;;;6251556;28;20224;-62
2023/07/04 02:13:40;;;;;;;5.40;4.90;;;21.00;99.90;;;;;;6252127;28;20242;-62
2023/07/04 02:16:44;;;;;;;5.60;5.10;;;21.00;99.90;;;;;;6250400;28;20228;-62
2023/07/04 02:19:47;;;;;;;5.33;4.83;;;21.00;99.90;;;;;;6251319;28;20690;-62
2023/07/04 02:22:50;;;;;;;6.70;5.50;;;21.00;99.90;;;;;;6251408;28;20228;-62
2023/07/04 02:25:54;;;;;;;5.20;4.70;;;21.10;99.90;;;;;;6250844;28;20228;-62
2023/07/04 02:28:58;;;;;;;5.70;4.73;;;21.10;99.90;;;;;;6251109;28;20676;-62
2023/07/04 02:32:01;;;;;;;5.60;5.10;;;21.10;99.90;;;;;;6250692;28;20228;-62
2023/07/04 02:35:08;;;;;;;5.43;4.93;;;21.20;99.90;;;;;;6250360;28;20232;-61
2023/07/04 02:38:11;;;;;;;6.97;6.27;;;21.20;99.90;;;;;;6250750;28;20228;-61
2023/07/04 02:41:17;;;;;;;5.13;4.50;;;21.10;99.90;;;;;;6250502;28;20236;-61
2023/07/04 02:44:22;;;;;;;6.17;5.67;;;20.90;99.90;;;;;;6250345;28;20577;-61
2023/07/04 02:47:26;;;;;;;7.13;4.60;;;20.80;99.90;;;;;;6250304;28;20299;-61
2023/07/04 02:50:30;;;;;;;6.10;5.50;;;20.80;99.90;;;;;;6250570;28;20294;-61
2023/07/04 02:53:33;;;;;;;7.37;5.30;;;20.70;99.90;;;;;;6250479;28;20251;-61
2023/07/04 02:56:37;;;;;;;6.23;5.57;;;20.70;99.90;;;;;;6250020;28;20243;-61
2023/07/04 02:59:44;;;;;;;5.80;5.30;;;20.70;99.90;;;;;;6251065;28;20232;-61
2023/07/04 03:02:47;;;;;;;9.13;5.13;;;20.60;99.90;;;;;;6250333;28;20643;-62
2023/07/04 03:05:51;;;;;;;7.07;6.37;;;20.50;99.90;;;;;;6250300;28;20747;-62
2023/07/04 03:08:56;;;;;;;6.80;5.90;;;20.40;99.90;;;;;;6249763;28;20228;-62
2023/07/04 03:12:00;;;;;;;5.63;5.03;;;20.30;99.90;;;;;;6249985;28;20608;-62
2023/07/04 03:15:06;;;;;;;6.70;6.10;;;20.20;99.90;;;;;;6249929;28;20299;-62
2023/07/04 03:18:09;;;;;;;8.80;6.53;;;20.10;99.90;;;;;;6249708;28;20569;-62
2023/07/04 03:21:13;;;;;;;8.67;7.87;;;20.00;99.90;;;;;;6224101;28;20228;-62
2023/07/04 03:24:16;;;;;;;8.70;7.37;;;20.00;99.90;;;;;;6249979;28;20550;-62
2023/07/04 03:27:24;;;;;;;8.33;6.80;;;19.80;99.90;;;;;;6249873;28;20242;-62
2023/07/04 03:30:32;;;;;;;7.17;6.47;;;19.80;99.90;;;;;;6250287;28;20230;-62
2023/07/04 03:33:38;;;;;;;9.27;7.17;;;19.80;99.90;;;;;;6250011;28;20240;-62
2023/07/04 03:36:41;;;;;;;6.43;5.83;;;19.70;99.90;;;;;;6250108;28;20236;-62
2023/07/04 03:39:45;;;;;;;6.97;6.27;;;19.70;99.90;;;;;;6250195;28;20548;-63
2023/07/04 03:42:48;;;;;;;6.43;5.80;;;19.70;99.90;;;;;;6249667;28;20243;-62
2023/07/04 03:45:53;;;;;;;5.57;5.07;;;19.80;99.90;;;;;;6250166;28;20305;-62
2023/07/04 03:48:56;;;;;;;6.57;5.77;;;19.80;99.90;;;;;;6249633;28;20314;-62
2023/07/04 03:52:02;;;;;;;6.60;5.80;;;19.80;99.90;;;;;;6250030;28;20232;-62
2023/07/04 03:55:08;;;;;;;8.83;5.67;;;19.90;99.90;;;;;;6249604;28;20803;-62
2023/07/04 03:58:13;;;;;;;6.70;6.00;;;19.90;99.90;;;;;;6249549;28;20578;-62
2023/07/04 04:01:18;;;;;;;6.27;5.77;;;19.90;99.90;;;;;;6249604;28;20321;-62
2023/07/04 04:04:21;;;;;;;6.53;5.93;;;20.00;99.90;;;;;;6249639;28;20236;-62
2023/07/04 04:07:25;;;;;;;6.57;5.97;;;20.00;99.90;;;;;;6249287;28;20236;-62
2023/07/04 04:10:28;;;;;;;7.50;6.80;;;20.20;99.90;;;;;;6249431;28;20246;-62
2023/07/04 04:13:33;;;;;;;7.60;6.40;;;20.30;99.90;;;;;;6249305;28;20586;-62
2023/07/04 04:16:38;;;;;;;9.63;8.43;;;20.30;99.90;;;;;;6249289;28;20233;-62
2023/07/04 04:19:41;;;;;;;7.93;7.23;;;20.40;99.90;;;;;;6249399;28;20232;-63
2023/07/04 04:22:46;;;;;;;7.73;6.67;;;20.60;99.90;;;;;;6249451;28;20602;-62
2023/07/04 04:25:52;;;;;;;10.30;7.67;;;20.70;99.90;;;;;;6240013;28;20338;-62
2023/07/04 04:28:58;;;;;;;9.00;8.10;;;20.90;99.90;;;;;;6249222;28;20244;-62
2023/07/04 04:32:04;;;;;;;10.23;9.23;;;20.90;99.90;;;;;;6249401;28;20676;-62
2023/07/04 04:35:12;;;;;;;8.30;7.60;;;21.00;99.90;;;;;;6268493;28;20236;-62
2023/07/04 04:38:18;;;;;;;10.10;8.00;;;21.10;99.90;;;;;;6274098;28;20322;-62
2023/07/04 04:41:21;;;;;;;8.60;7.80;;;21.20;99.90;;;;;;6278184;28;20227;-62
2023/07/04 04:44:28;;;;;;;8.90;8.00;;;21.10;99.90;;;;;;6278059;28;20227;-62
2023/07/04 04:47:36;;;;;;;11.40;8.53;;;21.10;99.90;;;;;;6278095;28;20314;-62
2023/07/04 04:50:46;;;;;;;9.50;8.50;;;21.20;99.90;;;;;;6277942;28;20227;-62
2023/07/04 04:53:49;;;;;;;8.80;8.00;;;21.20;99.90;;;;;;6278032;28;20785;-62
2023/07/04 04:56:52;;;;;;;9.80;8.83;;;21.20;99.90;;;;;;6261015;28;20315;-62
2023/07/04 04:59:59;;;;;;;11.30;7.70;;;21.20;99.90;;;;;;6278241;28;20461;-62
2023/07/04 05:03:04;;;;;;;10.10;9.10;;;21.20;99.90;;;;;;6277966;28;20199;-62
2023/07/04 05:06:08;;;;;;;9.33;8.13;;;21.20;99.90;;;;;;6277690;28;20553;-62
2023/07/04 05:09:11;;;;;;;12.67;7.07;;;21.20;99.90;;;;;;6277328;28;20231;-62
2023/07/04 05:12:14;;;;;;;8.07;7.37;;;21.20;99.90;;;;;;6277571;28;20227;-63
2023/07/04 05:15:18;;;;;;;9.33;6.87;;;21.20;99.90;;;;;;6277682;28;20231;-63
2023/07/04 05:18:23;;;;;;;8.67;6.87;;;21.20;99.90;;;;;;6259676;28;20271;-62
2023/07/04 05:21:26;;;;;;;8.37;7.57;;;21.00;99.90;;;;;;6276766;28;20228;-62
2023/07/04 05:24:33;;;;;;;9.83;7.17;;;21.00;99.90;;;;;;6276899;28;20314;-62
2023/07/04 05:27:37;;;;;;;7.73;6.93;;;21.10;99.90;;;;;;6272273;28;20655;-62
2023/07/04 05:30:40;;;;;;;8.60;7.30;;;21.20;99.90;;;;;;6277632;28;20232;-62
2023/07/04 05:33:45;;;;;;;7.97;6.57;;;21.20;99.90;;;;;;6269836;28;20243;-63
2023/07/04 05:36:52;;;;;;;7.67;6.97;;;21.30;99.90;;;;;;6236965;28;20252;-63
2023/07/04 05:39:57;;;;;;;6.90;6.20;;;21.40;99.90;;;;;;6235391;28;20246;-63
2023/07/04 05:43:00;;;;;;;7.60;6.70;;;21.60;99.90;;;;;;6252316;28;20239;-63
2023/07/04 05:46:05;;;;;;;6.87;6.17;;;21.80;99.90;;;;;;6252351;28;20228;-63
2023/07/04 05:49:09;;;;;;;10.57;6.77;;;21.90;99.90;;;;;;6251956;28;20244;-63
2023/07/04 05:52:12;;;;;;;7.90;6.80;;;22.10;99.90;;;;;;6252503;28;20236;-63
2023/07/04 05:55:16;;;;;;;8.83;6.70;;;22.30;99.90;;;;;;6252068;28;20262;-62
2023/07/04 05:58:25;;;;;;;7.07;6.37;;;22.40;99.90;;;;;;6251353;28;20668;-62
2023/07/04 06:01:32;;;;;;;8.13;6.80;;;22.50;99.90;;;;;;6251884;28;20716;-62
2023/07/04 06:04:38;;;;;;;11.17;7.00;;;22.60;99.90;;;;;;6251397;28;20228;-62
2023/07/04 06:07:44;;;;;;;9.50;6.80;;;22.90;99.90;;;;;;6251757;28;20224;-62
2023/07/04 06:10:59;;;;;;;8.60;7.13;;;23.00;99.90;;;;;;6251645;28;20242;-65
2023/07/04 06:14:03;;;;;;;9.33;7.30;;;23.40;99.90;;;;;;6252208;28;20549;-65
2023/07/04 06:17:06;;;;;;;7.30;6.00;;;23.90;99.90;;;;;;6251710;28;20232;-64
2023/07/04 06:20:15;;;;;;;8.07;6.40;;;24.30;99.90;;;;;;6234349;28;20228;-62
2023/07/04 06:23:20;;;;;;;8.00;6.77;;;24.80;99.90;;;;;;6234728;28;20310;-64
2023/07/04 06:26:27;;;;;;;6.57;5.33;;;25.50;99.90;;;;;;6251491;28;20232;-64
2023/07/04 06:29:30;;;;;;;7.10;6.20;;;26.20;99.40;;;;;;6251190;28;20313;-62
2023/07/04 06:32:34;;;;;;;6.93;6.20;;;26.50;98.50;;;;;;6250878;28;20227;-61
2023/07/04 06:35:43;;;;;;;9.83;6.00;;;27.00;97.10;;;;;;6257460;28;20304;-63
2023/07/04 06:38:46;;;;;;;7.97;6.90;;;27.00;96.60;;;;;;6275224;28;20655;-65
2023/07/04 06:41:55;;;;;;;8.13;6.83;;;26.80;96.30;;;;;;6275690;28;20199;-65
2023/07/04 06:44:58;;;;;;;8.50;6.87;;;26.60;96.50;;;;;;6275616;28;20193;-63
2023/07/04 06:48:01;;;;;;;7.07;6.37;;;26.50;96.50;;;;;;6275641;28;20223;-62
2023/07/04 06:51:08;;;;;;;8.43;6.00;;;26.30;96.70;;;;;;6275795;28;20206;-62
2023/07/04 06:54:11;;;;;;;7.47;6.37;;;26.20;96.80;;;;;;6276898;28;20283;-63
2023/07/04 06:57:15;;;;;;;7.67;6.87;;;26.30;96.70;;;;;;6286834;28;20310;-63
2023/07/04 07:00:19;;;;;;;7.03;6.33;;;26.40;96.40;;;;;;6285664;28;20331;-63
2023/07/04 07:03:22;;;;;;;6.23;5.63;;;26.60;96.60;;;;;;6287732;28;20553;-63
2023/07/04 07:06:28;;;;;;;6.80;6.20;;;26.80;95.70;;;;;;6283250;28;20357;-63
2023/07/04 07:09:36;;;;;;;8.23;6.27;;;27.40;95.80;;;;;;6287195;28;20300;-63
2023/07/04 07:12:39;;;;;;;6.80;6.03;;;28.80;94.00;;;;;;6285686;28;20231;-63
2023/07/04 07:15:45;;;;;;;8.13;6.80;;;30.40;91.50;;;;;;6274562;28;20229;-64
2023/07/04 07:18:50;;;;;;;8.00;6.27;;;31.10;86.70;;;;;;6279180;28;20552;-63
2023/07/04 07:22:01;;;;;;;7.75;7.03;;;31.00;83.90;;;;;;6276641;28;20312;-62
2023/07/04 07:25:08;;;;;;;7.78;6.97;;;30.60;81.80;;;;;;6284643;28;20226;-63
2023/07/04 07:28:11;;;;;;;6.82;6.13;;;30.40;82.10;;;;;;6286746;28;20364;-62
2023/07/04 07:31:18;;;;;;;7.50;6.60;;;29.90;81.10;;;;;;6283747;28;20225;-62
2023/07/04 07:34:21;;;;;;;7.93;6.50;;;29.60;82.30;;;;;;6272054;28;20309;-62
2023/07/04 07:37:26;;;;;;;7.90;7.20;;;29.30;82.60;;;;;;6253243;28;20671;-62
2023/07/04 07:40:29;;;;;;;13.43;6.57;;;29.40;83.40;;;;;;6250442;28;20231;-62
2023/07/04 07:43:39;;;;;;;6.80;6.18;;;29.80;82.90;;;;;;6246455;28;20227;-63
2023/07/04 07:46:42;;;;;;;7.93;6.93;;;30.90;79.70;;;;;;6248865;28;20233;-62
2023/07/04 07:49:46;;;;;;;7.10;6.40;;;32.30;76.20;;;;;;6248848;28;20223;-62
2023/07/04 07:52:50;;;;;;;7.35;6.43;;;33.10;70.20;;;;;;6249844;28;20227;-63
2023/07/04 07:55:56;;;;;;;6.43;5.82;;;33.00;68.80;;;;;;6249514;28;20234;-62
2023/07/04 07:58:59;;;;;;;6.28;5.55;;;32.30;69.60;;;;;;6249247;28;20235;-62
2023/07/04 08:02:03;;;;;;;6.97;6.28;;;32.50;70.10;;;;;;6249249;28;20628;-63
2023/07/04 08:05:07;;;;;;;6.28;5.70;;;32.20;68.30;;;;;;6248308;28;20598;-62
2023/07/04 08:08:16;;;;;;;6.85;6.03;;;32.00;68.80;;;;;;6249119;28;20239;-63
2023/07/04 08:11:19;;;;;;;8.27;6.47;;;31.00;71.00;;;;;;6249315;28;20246;-63
2023/07/04 08:14:24;;;;;;;6.90;6.30;;;30.60;73.10;;;;;;6251849;28;20235;-63
2023/07/04 08:17:30;;;;;;;7.30;6.60;;;30.60;73.20;;;;;;6253841;28;20241;-65
2023/07/04 08:20:42;;;;;;;6.80;6.07;;;30.50;73.20;;;;;;6259448;28;20318;-64
2023/07/04 08:23:50;;;;;;;7.45;5.32;;;30.40;73.20;;;;;;6243109;28;20236;-63
2023/07/04 08:26:56;;;;;;;7.60;6.55;;;30.50;72.90;;;;;;6229205;28;20551;-65
2023/07/04 08:29:59;;;;;;;6.03;5.38;;;30.40;72.30;;;;;;6231195;28;20189;-64
2023/07/04 08:33:05;;;;;;;5.95;5.40;;;30.10;71.70;;;;;;6257502;28;20349;-63
2023/07/04 08:36:10;;;;;;;5.90;5.30;;;29.80;72.00;;;;;;6280772;28;20237;-64
2023/07/04 08:39:16;;;;;;;6.45;5.68;;;29.70;72.90;;;;;;6275861;28;20235;-64
2023/07/04 08:42:26;;;;;;;5.63;5.13;;;29.50;73.10;;;;;;6279236;28;20228;-63
2023/07/04 08:45:30;;;;;;;7.30;5.37;;;29.40;73.70;;;;;;6278669;28;20241;-63
2023/07/04 08:48:34;;;;;;;6.50;5.90;;;29.40;73.80;;;;;;6277830;28;20384;-64
2023/07/04 08:51:44;;;;;;;7.13;6.43;;;29.40;72.30;;;;;;6278137;28;20231;-64
2023/07/04 08:54:49;;;;;;;6.57;5.97;;;29.40;73.70;;;;;;6278374;28;20314;-64
2023/07/04 08:57:56;;;;;;;10.15;7.68;;;29.70;74.10;;;;;;6277536;28;20233;-64
2023/07/04 09:01:04;;;;;;;8.50;7.43;;;29.50;75.60;;;;;;6277836;28;20708;-63
2023/07/04 09:04:14;;;;;;;8.20;7.50;;;29.40;77.00;;;;;;6277969;28;20376;-62
2023/07/04 09:07:32;;;;;;;8.30;7.50;;;29.00;77.30;;;;;;6281521;28;20239;-66
2023/07/04 09:10:44;;;;;;;9.73;8.60;;;28.90;79.00;;;;;;6277840;28;20242;-64
2023/07/04 09:13:56;;;;;;;8.37;7.57;;;29.00;77.90;;;;;;6277807;28;20241;-65
2023/07/04 09:17:04;;;;;;;8.97;7.47;;;28.90;77.10;;;;;;6277382;28;20230;-64
2023/07/04 09:20:10;;;;;;;7.70;7.00;;;28.60;78.00;;;;;;6276812;28;20252;-64
2023/07/04 09:23:18;;;;;;;9.00;7.47;;;28.10;78.00;;;;;;6278830;28;20368;-64
2023/07/04 09:26:25;;;;;;;9.23;7.10;;;28.00;78.30;;;;;;6277321;28;20555;-64
2023/07/04 09:29:29;;;;;;;7.20;6.60;;;27.90;79.30;;;;;;6277690;28;20219;-64
2023/07/04 09:32:32;;;;;;;9.03;7.40;;;27.90;80.60;;;;;;6277344;28;20313;-63
2023/07/04 09:35:36;;;;;;;8.43;7.53;;;27.90;82.00;;;;;;6277637;28;20246;-64
2023/07/04 09:38:53;;;;;;;7.80;6.93;;;28.10;82.00;;;;;;6278257;28;20241;-64
2023/07/04 09:42:00;;;;;;;8.03;7.23;;;28.30;79.90;;;;;;6276896;28;20226;-65
2023/07/04 09:45:08;;;;;;;9.10;7.30;;;28.70;78.50;;;;;;6263333;28;20205;-63
2023/07/04 09:48:12;;;;;;;8.70;7.80;;;29.10;76.50;;;;;;6276403;28;20230;-64
2023/07/04 09:51:30;;;;;;;7.33;6.67;;;29.40;75.40;;;;;;6276646;28;20233;-64
2023/07/04 09:54:35;;;;;;;7.23;6.53;;;29.40;74.30;;;;;;6276331;28;20665;-63
2023/07/04 09:57:42;;;;;;;7.30;6.60;;;29.20;74.00;;;;;;6276368;28;20238;-65
2023/07/04 10:00:47;;;;;;;7.00;6.30;;;29.20;74.70;;;;;;6276373;28;20235;-65
2023/07/04 10:03:50;;;;;;;7.40;6.70;;;29.10;73.90;;;;;;6276481;28;20231;-65
2023/07/04 10:06:54;;;;;;;8.43;6.87;;;28.70;75.20;;;;;;6276614;28;20249;-65
2023/07/04 10:10:01;;;;;;;6.90;6.30;;;28.80;75.40;;;;;;6276440;28;20306;-65
2023/07/04 10:13:08;;;;;;;6.90;6.30;;;28.90;75.30;;;;;;6276224;28;20550;-65
2023/07/04 10:16:23;;;;;;;6.93;6.03;;;28.90;75.10;;;;;;6275530;28;20242;-66
2023/07/04 10:19:30;;;;;;;6.20;5.70;;;28.90;74.70;;;;;;6275991;28;20345;-65
2023/07/04 10:22:38;;;;;;;6.93;6.30;;;28.40;76.60;;;;;;6275196;28;20238;-65
2023/07/04 10:25:41;;;;;;;7.33;5.83;;;28.30;76.90;;;;;;6275055;28;20663;-65
2023/07/04 10:28:50;;;;;;;7.70;6.97;;;28.20;77.70;;;;;;6274966;28;20234;-65
2023/07/04 10:31:53;;;;;;;7.73;6.67;;;28.30;75.90;;;;;;6257830;28;20231;-65
2023/07/04 10:34:57;;;;;;;7.90;7.20;;;28.50;75.90;;;;;;6275556;28;20542;-65
2023/07/04 10:38:05;;;;;;;7.50;6.30;;;28.60;75.80;;;;;;6274488;28;20951;-65
2023/07/04 10:41:17;;;;;;;7.17;6.40;;;28.60;76.10;;;;;;6275490;28;20245;-65
2023/07/04 10:44:26;;;;;;;7.20;6.60;;;28.60;74.10;;;;;;6275239;28;20230;-65
2023/07/04 10:47:33;;;;;;;8.07;7.27;;;28.80;74.40;;;;;;6275520;28;20242;-64
2023/07/04 10:50:43;;;;;;;8.30;7.40;;;28.60;75.40;;;;;;6265949;28;20238;-64
2023/07/04 10:53:46;;;;;;;8.03;7.27;;;28.40;81.10;;;;;;6275208;28;20249;-65
2023/07/04 10:56:53;;;;;;;9.57;7.50;;;28.40;82.60;;;;;;6275030;28;20316;-65
2023/07/04 11:00:01;;;;;;;8.50;7.70;;;28.30;85.20;;;;;;6276612;28;20659;-65
2023/07/04 11:03:11;;;;;;;7.63;6.83;;;28.30;86.80;;;;;;6279424;28;20199;-67
2023/07/04 11:06:19;;;;;;;7.37;6.67;;;28.20;85.70;;;;;;6280310;28;20226;-65
2023/07/04 11:09:22;;;;;;;7.90;6.30;;;27.70;87.80;;;;;;6275066;28;20230;-65
2023/07/04 11:12:29;;;;;;;4.77;4.27;;;27.00;88.60;;;;;;6275068;28;20227;-64
2023/07/04 11:15:37;;;;;;;3.77;3.20;;;25.90;87.00;;;;;;6274730;28;20230;-66
2023/07/04 11:18:44;;;;;;;4.87;4.23;;;25.00;88.30;;;;;;6274460;28;20242;-64
2023/07/04 11:22:20;;;;;;;7.10;5.50;;;24.70;91.70;;;;;;6274862;28;20373;-65
2023/07/04 11:25:30;;;;;;;6.03;5.43;;;24.20;94.40;;;;;;6275663;28;20234;-64
2023/07/04 11:28:45;;;;;;;8.50;6.40;;;24.00;95.80;;;;;;6274971;28;20806;-66
2023/07/04 11:32:22;;;;;;;7.10;6.40;;;24.10;96.70;;;;;;6275698;28;20219;-65
2023/07/04 11:35:33;;;;;;;6.10;5.50;;;24.20;97.20;;;;;;6200283;28;20675;-66
2023/07/04 11:38:44;;;;;;;6.17;5.57;;;24.60;96.80;;;;;;6248978;28;20227;-62
2023/07/04 11:41:47;;;;;;;6.87;5.13;;;24.70;95.60;;;;;;6249578;28;20239;-67
2023/07/04 11:44:59;;;;;;;4.60;3.90;;;24.60;94.50;;;;;;6249785;28;20573;-62
2023/07/04 11:48:10;;;;;;;6.17;5.30;;;24.60;94.30;;;;;;6251990;28;20227;-65
2023/07/04 11:51:13;;;;;;;3.77;3.23;;;24.70;94.10;;;;;;6250045;28;20698;-67
2023/07/04 11:54:17;;;;;;;3.90;3.60;;;24.70;93.20;;;;;;6254652;28;20245;-64
2023/07/04 11:57:22;;;;;;;4.10;3.60;;;24.60;93.20;;;;;;6254738;28;20709;-67
2023/07/04 12:01:03;;;;;;;3.90;3.50;;;24.50;93.30;;;;;;6254736;28;20238;-66
2023/07/04 12:04:11;;;;;;;3.00;2.80;;;24.50;94.20;;;;;;6254290;28;20543;-62
2023/07/04 12:07:44;;;;;;;4.03;3.20;;;24.50;93.80;;;;;;6254717;28;20294;-62
2023/07/04 12:10:47;;;;;;;3.93;2.90;;;24.20;93.00;;;;;;6252280;28;20678;-62
2023/07/04 12:13:57;;;;;;;3.90;3.03;;;23.90;93.70;;;;;;6254323;28;20228;-62
2023/07/04 12:17:02;;;;;;;3.50;2.83;;;23.90;94.30;;;;;;6253722;28;20228;-62
2023/07/04 12:20:11;;;;;;;4.50;3.10;;;23.90;93.80;;;;;;6253951;28;20254;-62
2023/07/04 12:23:15;;;;;;;6.63;4.27;;;23.70;93.60;;;;;;6254304;28;20235;-62
2023/07/04 12:26:22;;;;;;;3.37;3.03;;;23.70;94.30;;;;;;6236894;28;20235;-62
2023/07/04 12:29:26;;;;;;;7.77;4.53;;;23.80;94.70;;;;;;6254549;28;20231;-62
2023/07/04 12:32:51;;;;;;;4.97;4.00;;;24.00;94.80;;;;;;6229676;28;20225;-63
2023/07/04 12:36:06;;;;;;;4.37;3.97;;;24.00;94.00;;;;;;6229973;28;20189;-63
2023/07/04 12:39:09;;;;;;;3.93;3.53;;;24.10;93.80;;;;;;6228772;28;20237;-63
2023/07/04 12:42:22;;;;;;;4.03;3.30;;;24.10;94.10;;;;;;6229168;28;20229;-62
2023/07/04 12:45:27;;;;;;;4.40;3.73;;;24.10;94.50;;;;;;6230213;28;20557;-62
2023/07/04 12:48:34;;;;;;;5.87;4.10;;;24.20;94.50;;;;;;6228915;28;20319;-62
2023/07/04 12:51:45;;;;;;;4.70;4.30;;;24.10;94.50;;;;;;6228687;28;20550;-62
2023/07/04 12:54:49;;;;;;;4.60;3.83;;;24.20;95.00;;;;;;6228825;28;20256;-61
2023/07/04 12:57:54;;;;;;;4.70;4.20;;;24.20;95.60;;;;;;6228247;28;20236;-62
2023/07/04 13:01:10;;;;;;;5.20;4.47;;;24.20;95.70;;;;;;6227562;28;20324;-61
2023/07/04 13:04:22;;;;;;;4.67;4.07;;;24.20;95.60;;;;;;6229142;28;20240;-61
2023/07/04 13:07:26;;;;;;;5.20;4.70;;;24.10;94.80;;;;;;6228634;28;20244;-62
2023/07/04 13:10:36;;;;;;;6.37;4.50;;;23.90;94.50;;;;;;6228188;28;20223;-62
2023/07/04 13:13:43;;;;;;;5.30;3.97;;;23.60;94.60;;;;;;6228467;28;20286;-62
2023/07/04 13:16:47;;;;;;;5.83;5.23;;;23.40;95.40;;;;;;6228347;28;20232;-61
2023/07/04 13:19:51;;;;;;;5.77;4.67;;;23.60;95.70;;;;;;6228854;28;20236;-62
2023/07/04 13:22:58;;;;;;;6.60;4.90;;;23.60;96.80;;;;;;6231094;28;20221;-62
2023/07/04 13:26:04;;;;;;;5.60;4.80;;;23.70;97.20;;;;;;6252233;28;20232;-62
2023/07/04 13:29:17;;;;;;;5.70;5.20;;;23.80;97.60;;;;;;6252525;28;20668;-62
2023/07/04 13:32:29;;;;;;;4.73;4.00;;;23.80;98.00;;;;;;6252081;28;20220;-62
2023/07/04 13:35:53;;;;;;;6.03;4.70;;;23.80;98.20;;;;;;6225236;28;20248;-62
2023/07/04 13:38:58;;;;;;;6.30;5.67;;;23.90;98.30;;;;;;6225562;28;20232;-62
2023/07/04 13:42:05;;;;;;;8.23;5.30;;;23.90;98.30;;;;;;6225963;28;20232;-62
2023/07/04 13:45:09;;;;;;;6.13;4.70;;;24.00;98.20;;;;;;6230713;28;20346;-62
2023/07/04 13:48:16;;;;;;;7.70;5.10;;;24.00;98.40;;;;;;6228733;28;20689;-62
2023/07/04 13:51:22;;;;;;;6.83;5.67;;;24.10;98.70;;;;;;6225742;28;20233;-62
2023/07/04 13:54:27;;;;;;;8.10;5.50;;;24.10;98.80;;;;;;6262500;28;20251;-62
2023/07/04 13:57:30;;;;;;;7.13;5.53;;;24.10;99.00;;;;;;6276819;28;20231;-62
2023/07/04 14:00:33;;;;;;;6.60;6.00;;;24.10;98.90;;;;;;6267290;28;20239;-62
2023/07/04 14:03:57;;;;;;;9.93;4.67;;;24.10;99.10;;;;;;6276258;28;20242;-62
2023/07/04 14:07:06;;;;;;;6.23;5.63;;;24.00;99.00;;;;;;6276308;28;20243;-62
2023/07/04 14:10:14;;;;;;;6.50;5.87;;;23.90;99.70;;;;;;6275670;28;20224;-62
2023/07/04 14:13:36;;;;;;;6.70;6.03;;;23.90;99.90;;;;;;6275775;28;20242;-62
2023/07/04 14:16:39;;;;;;;6.47;5.77;;;23.90;99.90;;;;;;6258368;28;20560;-62
2023/07/04 14:20:04;;;;;;;8.37;5.70;;;24.00;99.50;;;;;;6275811;28;20228;-63
2023/07/04 14:23:10;;;;;;;5.50;5.00;;;24.10;99.00;;;;;;6275972;28;20306;-62
2023/07/04 14:26:18;;;;;;;6.90;6.30;;;24.20;98.60;;;;;;6275774;28;20227;-62
2023/07/04 14:29:24;;;;;;;6.50;5.40;;;24.30;98.60;;;;;;6276033;28;20227;-62
2023/07/04 14:32:28;;;;;;;6.43;5.83;;;24.40;98.40;;;;;;6275836;28;20322;-62
2023/07/04 14:35:34;;;;;;;6.23;5.60;;;24.50;97.80;;;;;;6276010;28;20253;-62
2023/07/04 14:38:37;;;;;;;6.60;5.30;;;24.60;96.90;;;;;;6275827;28;20662;-62
2023/07/04 14:41:42;;;;;;;7.30;5.77;;;24.60;97.00;;;;;;6275346;28;20231;-62
2023/07/04 14:45:07;;;;;;;5.90;5.30;;;24.60;97.00;;;;;;6223975;28;20233;-62
2023/07/04 14:48:13;;;;;;;6.03;5.43;;;24.60;97.10;;;;;;6224184;28;20232;-62
2023/07/04 14:51:17;;;;;;;9.70;6.57;;;24.70;97.00;;;;;;6224030;28;20232;-62
2023/07/04 14:54:21;;;;;;;7.80;5.40;;;24.90;96.80;;;;;;6223851;28;20243;-62
2023/07/04 14:57:26;;;;;;;6.73;5.23;;;25.10;96.60;;;;;;6224304;28;20232;-62
2023/07/04 15:00:39;;;;;;;5.67;4.73;;;25.40;96.00;;;;;;6224096;28;20243;-62
2023/07/04 15:03:46;;;;;;;5.20;4.70;;;25.60;94.40;;;;;;6257180;28;20254;-64
2023/07/04 15:06:56;;;;;;;8.80;5.10;;;25.80;94.00;;;;;;6275201;28;20235;-64
2023/07/04 15:10:00;;;;;;;5.83;4.10;;;26.10;92.50;;;;;;6275048;28;20230;-63
2023/07/04 15:13:04;;;;;;;5.23;4.50;;;26.20;92.00;;;;;;6275567;28;20233;-64
2023/07/04 15:16:07;;;;;;;5.83;4.33;;;26.30;90.70;;;;;;6274971;28;20233;-65
2023/07/04 15:19:12;;;;;;;6.50;5.40;;;26.20;90.40;;;;;;6274671;28;20231;-64
2023/07/04 15:22:16;;;;;;;5.30;4.83;;;26.30;90.50;;;;;;6274329;28;20231;-65
2023/07/04 15:25:20;;;;;;;5.20;4.70;;;26.20;91.80;;;;;;6275095;28;20361;-64
2023/07/04 15:28:26;;;;;;;6.00;5.20;;;26.30;91.60;;;;;;6274457;28;20665;-63
2023/07/04 15:31:30;;;;;;;6.13;5.00;;;26.30;91.10;;;;;;6274639;28;20230;-64
2023/07/04 15:34:34;;;;;;;5.40;4.90;;;26.40;90.20;;;;;;6274492;28;20313;-67
2023/07/04 15:37:37;;;;;;;6.03;4.90;;;26.40;91.10;;;;;;6274720;28;20237;-64
2023/07/04 15:40:50;;;;;;;6.67;4.60;;;26.60;90.80;;;;;;6274139;28;20686;-62
2023/07/04 15:43:59;;;;;;;5.70;4.40;;;26.70;89.80;;;;;;6274588;28;20227;-62
2023/07/04 15:47:05;;;;;;;5.23;4.73;;;26.80;87.50;;;;;;6274865;28;20242;-63
2023/07/04 15:50:10;;;;;;;4.50;4.10;;;26.90;87.40;;;;;;6274490;28;20671;-62
2023/07/04 15:53:15;;;;;;;4.60;4.20;;;27.00;86.90;;;;;;6274768;28;20230;-64
2023/07/04 15:56:23;;;;;;;5.77;4.10;;;27.00;85.20;;;;;;6274311;28;20341;-63
2023/07/04 15:59:31;;;;;;;5.07;4.10;;;27.00;83.00;;;;;;6274839;28;20305;-63
2023/07/04 16:02:37;;;;;;;5.57;4.07;;;27.10;83.00;;;;;;6274268;28;20241;-63
2023/07/04 16:05:45;;;;;;;5.10;4.60;;;27.20;83.00;;;;;;6274743;28;20314;-62
2023/07/04 16:08:49;;;;;;;7.83;6.30;;;27.10;82.60;;;;;;6274377;28;20530;-63